sensor_id;sensor_type;location;lat;lon;timestamp;pressure;altitude;pressure_sealevel;temperature;humidity
56582;BME280;42463;52.214;21.238;2023-04-21T00:01:57;100752.27;;;12.37;45.83
56582;BME280;42463;52.214;21.238;2023-04-21T00:04:04;100750.88;;;12.34;46.00
56582;BME280;42463;52.214;21.238;2023-04-21T00:06:10;100750.46;;;12.30;46.04
56582;BME280;42463;52.214;21.238;2023-04-21T00:08:16;100750.10;;;12.26;45.93
56582;BME280;42463;52.214;21.238;2023-04-21T00:10:22;100747.02;;;12.23;46.12
56582;BME280;42463;52.214;21.238;2023-04-21T00:12:27;100744.70;;;12.19;46.19
56582;BME280;42463;52.214;21.238;2023-04-21T00:14:33;100747.10;;;12.14;46.33
56582;BME280;42463;52.214;21.238;2023-04-21T00:16:39;100748.30;;;12.10;46.96
56582;BME280;42463;52.214;21.238;2023-04-21T00:18:45;100747.77;;;12.06;46.99
56582;BME280;42463;52.214;21.238;2023-04-21T00:20:51;100749.44;;;12.03;47.02
56582;BME280;42463;52.214;21.238;2023-04-21T00:22:57;100747.90;;;12.02;47.17
56582;BME280;42463;52.214;21.238;2023-04-21T00:25:04;100744.34;;;12.00;47.09
56582;BME280;42463;52.214;21.238;2023-04-21T00:27:09;100738.70;;;11.96;47.17
56582;BME280;42463;52.214;21.238;2023-04-21T00:29:16;100741.48;;;11.97;46.95
56582;BME280;42463;52.214;21.238;2023-04-21T00:31:21;100744.23;;;11.95;47.16
56582;BME280;42463;52.214;21.238;2023-04-21T00:33:26;100742.74;;;11.93;47.24
56582;BME280;42463;52.214;21.238;2023-04-21T00:35:33;100736.27;;;11.88;47.11
56582;BME280;42463;52.214;21.238;2023-04-21T00:37:39;100740.69;;;11.89;47.23
56582;BME280;42463;52.214;21.238;2023-04-21T00:39:44;100741.65;;;11.87;47.40
56582;BME280;42463;52.214;21.238;2023-04-21T00:41:51;100738.52;;;11.86;47.54
56582;BME280;42463;52.214;21.238;2023-04-21T00:44:04;100741.29;;;11.84;47.36
56582;BME280;42463;52.214;21.238;2023-04-21T00:46:10;100738.05;;;11.81;47.50
56582;BME280;42463;52.214;21.238;2023-04-21T00:48:16;100740.79;;;11.78;47.63
56582;BME280;42463;52.214;21.238;2023-04-21T00:50:22;100736.30;;;11.74;47.72
56582;BME280;42463;52.214;21.238;2023-04-21T00:52:28;100734.39;;;11.73;47.93
56582;BME280;42463;52.214;21.238;2023-04-21T00:54:35;100733.67;;;11.72;47.83
56582;BME280;42463;52.214;21.238;2023-04-21T00:56:40;100735.71;;;11.70;47.86
56582;BME280;42463;52.214;21.238;2023-04-21T00:58:46;100732.59;;;11.68;47.81
56582;BME280;42463;52.214;21.238;2023-04-21T01:15:13;100735.13;;;11.42;48.37
56582;BME280;42463;52.214;21.238;2023-04-21T01:27:50;100731.65;;;11.26;48.91
56582;BME280;42463;52.214;21.238;2023-04-21T01:30:29;100735.27;;;11.24;49.05
56582;BME280;42463;52.214;21.238;2023-04-21T01:33:15;100737.14;;;11.22;48.88
56582;BME280;42463;52.214;21.238;2023-04-21T01:35:51;100738.67;;;11.19;48.91
56582;BME280;42463;52.214;21.238;2023-04-21T01:38:27;100731.64;;;11.17;48.76
56582;BME280;42463;52.214;21.238;2023-04-21T01:41:03;100733.84;;;11.16;48.61
56582;BME280;42463;52.214;21.238;2023-04-21T01:43:30;100730.65;;;11.12;48.71
56582;BME280;42463;52.214;21.238;2023-04-21T01:46:09;100733.70;;;11.09;48.79
56582;BME280;42463;52.214;21.238;2023-04-21T01:48:45;100732.77;;;11.06;48.89
56582;BME280;42463;52.214;21.238;2023-04-21T01:51:23;100739.88;;;11.04;48.89
56582;BME280;42463;52.214;21.238;2023-04-21T01:54:00;100736.32;;;11.03;49.09
56582;BME280;42463;52.214;21.238;2023-04-21T01:56:38;100741.49;;;11.00;49.02
56582;BME280;42463;52.214;21.238;2023-04-21T01:59:14;100739.64;;;10.96;49.06
56582;BME280;42463;52.214;21.238;2023-04-21T02:02:01;100736.61;;;10.94;49.23
56582;BME280;42463;52.214;21.238;2023-04-21T02:05:06;100737.02;;;10.91;49.54
56582;BME280;42463;52.214;21.238;2023-04-21T02:07:45;100731.27;;;10.87;49.74
56582;BME280;42463;52.214;21.238;2023-04-21T02:10:25;100730.11;;;10.83;49.87
56582;BME280;42463;52.214;21.238;2023-04-21T02:13:03;100723.30;;;10.77;49.99
56582;BME280;42463;52.214;21.238;2023-04-21T02:15:41;100726.94;;;10.74;50.09
56582;BME280;42463;52.214;21.238;2023-04-21T02:18:20;100729.74;;;10.70;50.20
56582;BME280;42463;52.214;21.238;2023-04-21T02:20:59;100730.72;;;10.66;50.28
56582;BME280;42463;52.214;21.238;2023-04-21T02:23:37;100730.20;;;10.61;50.11
56582;BME280;42463;52.214;21.238;2023-04-21T02:26:28;100730.34;;;10.56;50.44
56582;BME280;42463;52.214;21.238;2023-04-21T02:29:07;100732.73;;;10.54;50.51
56582;BME280;42463;52.214;21.238;2023-04-21T02:31:43;100731.13;;;10.51;50.66
56582;BME280;42463;52.214;21.238;2023-04-21T02:34:27;100735.98;;;10.49;50.84
56582;BME280;42463;52.214;21.238;2023-04-21T02:37:04;100732.84;;;10.46;50.58
56582;BME280;42463;52.214;21.238;2023-04-21T02:43:34;100727.02;;;10.40;50.88
56582;BME280;42463;52.214;21.238;2023-04-21T02:46:11;100726.09;;;10.34;51.11
56582;BME280;42463;52.214;21.238;2023-04-21T02:48:46;100722.57;;;10.28;51.18
56582;BME280;42463;52.214;21.238;2023-04-21T02:51:24;100722.53;;;10.20;51.14
56582;BME280;42463;52.214;21.238;2023-04-21T02:54:01;100720.00;;;10.13;51.13
56582;BME280;42463;52.214;21.238;2023-04-21T02:56:38;100720.45;;;10.05;51.10
56582;BME280;42463;52.214;21.238;2023-04-21T02:59:16;100718.71;;;9.99;51.17
56582;BME280;42463;52.214;21.238;2023-04-21T03:01:51;100723.71;;;9.91;51.47
56582;BME280;42463;52.214;21.238;2023-04-21T03:04:27;100721.08;;;9.86;51.93
56582;BME280;42463;52.214;21.238;2023-04-21T03:07:38;100725.10;;;9.81;52.80
56582;BME280;42463;52.214;21.238;2023-04-21T03:10:14;100719.65;;;9.77;52.94
56582;BME280;42463;52.214;21.238;2023-04-21T03:19:53;100715.23;;;9.70;53.11
56582;BME280;42463;52.214;21.238;2023-04-21T03:22:33;100716.71;;;9.71;53.03
56582;BME280;42463;52.214;21.238;2023-04-21T03:25:40;100709.94;;;9.68;53.08
56582;BME280;42463;52.214;21.238;2023-04-21T03:28:17;100714.52;;;9.70;53.07
56582;BME280;42463;52.214;21.238;2023-04-21T03:30:55;100720.09;;;9.69;53.04
56582;BME280;42463;52.214;21.238;2023-04-21T03:36:53;100723.68;;;9.64;53.07
56582;BME280;42463;52.214;21.238;2023-04-21T03:39:36;100722.31;;;9.64;53.07
56582;BME280;42463;52.214;21.238;2023-04-21T03:42:15;100720.69;;;9.64;52.96
56582;BME280;42463;52.214;21.238;2023-04-21T03:47:59;100731.27;;;9.62;52.83
56582;BME280;42463;52.214;21.238;2023-04-21T03:50:39;100730.02;;;9.59;52.80
56582;BME280;42463;52.214;21.238;2023-04-21T03:53:15;100735.80;;;9.61;52.76
56582;BME280;42463;52.214;21.238;2023-04-21T03:55:51;100739.61;;;9.62;52.66
56582;BME280;42463;52.214;21.238;2023-04-21T03:58:31;100736.42;;;9.65;52.62
56582;BME280;42463;52.214;21.238;2023-04-21T04:01:11;100740.52;;;9.67;52.42
56582;BME280;42463;52.214;21.238;2023-04-21T04:03:44;100740.09;;;9.67;52.50
56582;BME280;42463;52.214;21.238;2023-04-21T04:06:30;100742.42;;;9.67;52.48
56582;BME280;42463;52.214;21.238;2023-04-21T04:09:09;100743.34;;;9.67;52.27
56582;BME280;42463;52.214;21.238;2023-04-21T04:11:47;100740.49;;;9.68;52.45
56582;BME280;42463;52.214;21.238;2023-04-21T04:14:13;100746.94;;;9.68;52.29
56582;BME280;42463;52.214;21.238;2023-04-21T04:16:49;100747.41;;;9.70;52.45
56582;BME280;42463;52.214;21.238;2023-04-21T04:19:28;100746.77;;;9.73;52.22
56582;BME280;42463;52.214;21.238;2023-04-21T04:22:08;100751.84;;;9.74;52.19
56582;BME280;42463;52.214;21.238;2023-04-21T04:27:57;100754.23;;;9.82;52.10
56582;BME280;42463;52.214;21.238;2023-04-21T04:30:36;100752.23;;;9.86;52.02
56582;BME280;42463;52.214;21.238;2023-04-21T04:33:14;100756.18;;;9.88;51.94
56582;BME280;42463;52.214;21.238;2023-04-21T04:35:52;100756.76;;;9.90;51.80
56582;BME280;42463;52.214;21.238;2023-04-21T04:38:26;100762.34;;;9.93;51.83
56582;BME280;42463;52.214;21.238;2023-04-21T04:41:06;100755.89;;;9.94;51.69
56582;BME280;42463;52.214;21.238;2023-04-21T04:43:44;100760.80;;;10.04;51.53
56582;BME280;42463;52.214;21.238;2023-04-21T04:46:21;100761.21;;;10.08;51.41
56582;BME280;42463;52.214;21.238;2023-04-21T04:56:51;100763.00;;;10.26;50.93
56582;BME280;42463;52.214;21.238;2023-04-21T04:59:32;100767.39;;;10.35;50.89
56582;BME280;42463;52.214;21.238;2023-04-21T05:02:13;100767.06;;;10.46;50.59
56582;BME280;42463;52.214;21.238;2023-04-21T05:07:46;100766.67;;;10.59;49.94
56582;BME280;42463;52.214;21.238;2023-04-21T05:10:32;100763.45;;;10.63;49.74
56582;BME280;42463;52.214;21.238;2023-04-21T05:13:07;100761.30;;;10.68;49.58
56582;BME280;42463;52.214;21.238;2023-04-21T05:15:53;100762.48;;;10.73;49.55
56582;BME280;42463;52.214;21.238;2023-04-21T05:18:35;100767.14;;;10.80;49.22
56582;BME280;42463;52.214;21.238;2023-04-21T05:21:12;100764.95;;;10.86;48.89
56582;BME280;42463;52.214;21.238;2023-04-21T05:49:06;100762.45;;;11.65;46.38
56582;BME280;42463;52.214;21.238;2023-04-21T05:52:03;100760.73;;;11.72;46.26
56582;BME280;42463;52.214;21.238;2023-04-21T05:55:11;100767.77;;;11.85;46.09
56582;BME280;42463;52.214;21.238;2023-04-21T05:57:53;100766.05;;;11.92;45.83
56582;BME280;42463;52.214;21.238;2023-04-21T06:00:31;100763.19;;;11.98;45.74
56582;BME280;42463;52.214;21.238;2023-04-21T06:03:08;100756.95;;;12.05;45.29
56582;BME280;42463;52.214;21.238;2023-04-21T06:05:49;100760.39;;;12.16;44.77
56582;BME280;42463;52.214;21.238;2023-04-21T06:09:27;100759.95;;;12.26;44.70
56582;BME280;42463;52.214;21.238;2023-04-21T06:12:11;100759.09;;;12.39;44.53
56582;BME280;42463;52.214;21.238;2023-04-21T06:25:44;100754.89;;;12.94;43.44
56582;BME280;42463;52.214;21.238;2023-04-21T06:32:18;100749.38;;;13.20;42.50
56582;BME280;42463;52.214;21.238;2023-04-21T06:35:00;100749.52;;;13.28;42.31
56582;BME280;42463;52.214;21.238;2023-04-21T06:56:54;100751.79;;;14.15;40.95
56582;BME280;42463;52.214;21.238;2023-04-21T07:00:01;100748.44;;;14.29;40.81
56582;BME280;42463;52.214;21.238;2023-04-21T07:02:49;100749.45;;;14.42;39.83
56582;BME280;42463;52.214;21.238;2023-04-21T07:09:01;100750.16;;;14.67;39.37
56582;BME280;42463;52.214;21.238;2023-04-21T07:11:49;100751.20;;;14.83;39.52
56582;BME280;42463;52.214;21.238;2023-04-21T07:14:32;100746.70;;;14.97;38.93
56582;BME280;42463;52.214;21.238;2023-04-21T07:17:08;100741.65;;;15.07;38.69
56582;BME280;42463;52.214;21.238;2023-04-21T07:19:44;100748.17;;;15.23;38.60
56582;BME280;42463;52.214;21.238;2023-04-21T07:22:22;100745.56;;;15.38;38.58
56582;BME280;42463;52.214;21.238;2023-04-21T07:25:01;100743.21;;;15.55;37.87
56582;BME280;42463;52.214;21.238;2023-04-21T07:27:38;100742.51;;;15.68;37.43
56582;BME280;42463;52.214;21.238;2023-04-21T07:30:13;100739.77;;;15.78;37.26
56582;BME280;42463;52.214;21.238;2023-04-21T07:32:49;100747.45;;;15.95;37.24
56582;BME280;42463;52.214;21.238;2023-04-21T07:35:29;100745.52;;;16.09;36.60
56582;BME280;42463;52.214;21.238;2023-04-21T07:38:08;100749.44;;;16.21;36.31
56582;BME280;42463;52.214;21.238;2023-04-21T07:40:44;100745.18;;;16.35;35.75
56582;BME280;42463;52.214;21.238;2023-04-21T07:43:23;100746.51;;;16.48;35.22
56582;BME280;42463;52.214;21.238;2023-04-21T07:49:06;100737.23;;;16.77;34.45
56582;BME280;42463;52.214;21.238;2023-04-21T07:51:44;100736.95;;;16.91;34.39
56582;BME280;42463;52.214;21.238;2023-04-21T07:54:22;100729.06;;;17.06;33.32
56582;BME280;42463;52.214;21.238;2023-04-21T07:56:58;100728.38;;;17.18;33.79
56582;BME280;42463;52.214;21.238;2023-04-21T08:02:54;100729.88;;;17.46;33.01
56582;BME280;42463;52.214;21.238;2023-04-21T08:05:33;100725.73;;;17.57;32.65
56582;BME280;42463;52.214;21.238;2023-04-21T08:08:26;100726.30;;;17.68;31.99
56582;BME280;42463;52.214;21.238;2023-04-21T08:11:05;100724.53;;;17.75;30.91
56582;BME280;42463;52.214;21.238;2023-04-21T08:13:46;100720.92;;;17.82;30.85
56582;BME280;42463;52.214;21.238;2023-04-21T08:16:31;100720.41;;;17.95;30.90
56582;BME280;42463;52.214;21.238;2023-04-21T08:19:08;100718.98;;;18.10;30.97
56582;BME280;42463;52.214;21.238;2023-04-21T08:21:46;100721.95;;;18.21;31.46
56582;BME280;42463;52.214;21.238;2023-04-21T08:24:23;100721.71;;;18.36;30.95
56582;BME280;42463;52.214;21.238;2023-04-21T08:26:59;100723.27;;;18.49;30.44
56582;BME280;42463;52.214;21.238;2023-04-21T08:29:27;100721.31;;;18.58;30.64
56582;BME280;42463;52.214;21.238;2023-04-21T08:32:06;100716.20;;;18.70;30.17
56582;BME280;42463;52.214;21.238;2023-04-21T08:34:48;100713.98;;;18.82;29.53
56582;BME280;42463;52.214;21.238;2023-04-21T08:37:24;100715.41;;;18.91;29.32
56582;BME280;42463;52.214;21.238;2023-04-21T08:40:03;100710.70;;;19.04;29.79
56582;BME280;42463;52.214;21.238;2023-04-21T08:42:40;100711.04;;;19.13;29.03
56582;BME280;42463;52.214;21.238;2023-04-21T08:45:16;100710.52;;;19.23;28.95
56582;BME280;42463;52.214;21.238;2023-04-21T08:47:55;100713.25;;;19.32;27.69
56582;BME280;42463;52.214;21.238;2023-04-21T08:50:36;100708.73;;;19.40;27.60
56582;BME280;42463;52.214;21.238;2023-04-21T08:53:13;100709.81;;;19.41;26.89
56582;BME280;42463;52.214;21.238;2023-04-21T08:55:51;100708.27;;;19.47;26.37
56582;BME280;42463;52.214;21.238;2023-04-21T08:58:31;100704.64;;;19.53;26.30
56582;BME280;42463;52.214;21.238;2023-04-21T09:01:23;100706.09;;;19.61;26.40
56582;BME280;42463;52.214;21.238;2023-04-21T09:04:22;100712.98;;;19.70;26.66
56582;BME280;42463;52.214;21.238;2023-04-21T09:07:02;100701.38;;;19.82;26.03
56582;BME280;42463;52.214;21.238;2023-04-21T09:09:57;100697.52;;;19.84;25.28
56582;BME280;42463;52.214;21.238;2023-04-21T09:12:34;100692.08;;;19.89;25.65
56582;BME280;42463;52.214;21.238;2023-04-21T09:15:18;100688.89;;;19.98;25.91
56582;BME280;42463;52.214;21.238;2023-04-21T09:18:01;100689.02;;;20.09;25.37
56582;BME280;42463;52.214;21.238;2023-04-21T09:20:38;100682.98;;;20.18;25.26
56582;BME280;42463;52.214;21.238;2023-04-21T09:23:19;100683.27;;;20.26;25.19
56582;BME280;42463;52.214;21.238;2023-04-21T09:25:57;100681.50;;;20.37;25.07
56582;BME280;42463;52.214;21.238;2023-04-21T09:29:06;100669.84;;;20.49;24.69
56582;BME280;42463;52.214;21.238;2023-04-21T09:31:43;100674.24;;;20.59;24.76
56582;BME280;42463;52.214;21.238;2023-04-21T09:34:29;100672.85;;;20.70;24.23
56582;BME280;42463;52.214;21.238;2023-04-21T09:37:13;100664.16;;;20.76;24.43
56582;BME280;42463;52.214;21.238;2023-04-21T09:39:53;100675.27;;;20.81;24.20
56582;BME280;42463;52.214;21.238;2023-04-21T09:42:34;100671.56;;;20.85;24.18
56582;BME280;42463;52.214;21.238;2023-04-21T09:45:13;100664.17;;;20.93;23.51
56582;BME280;42463;52.214;21.238;2023-04-21T09:47:56;100671.31;;;20.94;23.59
56582;BME280;42463;52.214;21.238;2023-04-21T09:50:33;100673.64;;;20.98;24.08
56582;BME280;42463;52.214;21.238;2023-04-21T09:53:13;100671.71;;;21.02;23.82
56582;BME280;42463;52.214;21.238;2023-04-21T09:59:28;100660.08;;;21.17;23.87
56582;BME280;42463;52.214;21.238;2023-04-21T10:02:06;100660.99;;;21.27;23.23
56582;BME280;42463;52.214;21.238;2023-04-21T10:04:43;100653.47;;;21.31;23.15
56582;BME280;42463;52.214;21.238;2023-04-21T10:07:20;100654.35;;;21.31;22.82
56582;BME280;42463;52.214;21.238;2023-04-21T10:10:00;100648.41;;;21.30;23.02
56582;BME280;42463;52.214;21.238;2023-04-21T10:12:39;100647.60;;;21.34;22.92
56582;BME280;42463;52.214;21.238;2023-04-21T10:15:36;100641.80;;;21.40;22.91
56582;BME280;42463;52.214;21.238;2023-04-21T10:18:27;100637.52;;;21.44;22.72
56582;BME280;42463;52.214;21.238;2023-04-21T10:21:03;100635.23;;;21.47;22.34
56582;BME280;42463;52.214;21.238;2023-04-21T10:23:43;100625.73;;;21.47;22.60
56582;BME280;42463;52.214;21.238;2023-04-21T10:26:55;100626.77;;;21.53;22.76
56582;BME280;42463;52.214;21.238;2023-04-21T10:29:35;100629.92;;;21.66;22.65
56582;BME280;42463;52.214;21.238;2023-04-21T10:32:12;100619.86;;;21.73;22.59
56582;BME280;42463;52.214;21.238;2023-04-21T10:35:08;100613.14;;;21.74;22.38
56582;BME280;42463;52.214;21.238;2023-04-21T10:37:43;100613.06;;;21.86;22.27
56582;BME280;42463;52.214;21.238;2023-04-21T10:40:39;100616.84;;;21.97;21.78
56582;BME280;42463;52.214;21.238;2023-04-21T10:43:50;100612.92;;;22.03;21.74
56582;BME280;42463;52.214;21.238;2023-04-21T10:46:46;100610.48;;;22.08;21.27
56582;BME280;42463;52.214;21.238;2023-04-21T10:49:29;100603.79;;;22.15;21.11
56582;BME280;42463;52.214;21.238;2023-04-21T10:52:19;100604.54;;;22.18;20.70
56582;BME280;42463;52.214;21.238;2023-04-21T10:55:12;100599.62;;;22.14;20.83
56582;BME280;42463;52.214;21.238;2023-04-21T10:57:49;100597.91;;;22.16;21.04
56582;BME280;42463;52.214;21.238;2023-04-21T11:00:28;100593.98;;;22.24;21.08
56582;BME280;42463;52.214;21.238;2023-04-21T11:03:10;100592.08;;;22.35;21.24
56582;BME280;42463;52.214;21.238;2023-04-21T11:05:49;100593.34;;;22.46;21.31
56582;BME280;42463;52.214;21.238;2023-04-21T11:08:31;100590.59;;;22.52;21.13
56582;BME280;42463;52.214;21.238;2023-04-21T11:11:07;100576.58;;;22.51;20.74
56582;BME280;42463;52.214;21.238;2023-04-21T11:13:52;100576.52;;;22.59;20.85
56582;BME280;42463;52.214;21.238;2023-04-21T11:16:32;100574.41;;;22.75;21.41
56582;BME280;42463;52.214;21.238;2023-04-21T11:19:13;100572.98;;;22.92;21.44
56582;BME280;42463;52.214;21.238;2023-04-21T11:21:48;100565.14;;;23.04;21.13
56582;BME280;42463;52.214;21.238;2023-04-21T11:24:27;100564.24;;;23.13;20.94
56582;BME280;42463;52.214;21.238;2023-04-21T11:27:03;100564.11;;;23.17;20.91
56582;BME280;42463;52.214;21.238;2023-04-21T11:29:39;100554.77;;;23.19;20.84
56582;BME280;42463;52.214;21.238;2023-04-21T11:32:21;100554.17;;;23.20;20.61
56582;BME280;42463;52.214;21.238;2023-04-21T11:35:00;100556.03;;;23.23;20.74
56582;BME280;42463;52.214;21.238;2023-04-21T11:37:35;100552.05;;;23.23;20.82
56582;BME280;42463;52.214;21.238;2023-04-21T11:40:13;100552.61;;;23.23;20.18
56582;BME280;42463;52.214;21.238;2023-04-21T11:42:53;100550.73;;;23.21;20.46
56582;BME280;42463;52.214;21.238;2023-04-21T11:45:29;100549.60;;;23.20;20.54
56582;BME280;42463;52.214;21.238;2023-04-21T11:48:19;100546.15;;;23.25;20.28
56582;BME280;42463;52.214;21.238;2023-04-21T11:50:59;100538.88;;;23.21;20.01
56582;BME280;42463;52.214;21.238;2023-04-21T11:53:43;100539.31;;;23.20;20.42
56582;BME280;42463;52.214;21.238;2023-04-21T11:56:22;100546.46;;;23.21;20.34
56582;BME280;42463;52.214;21.238;2023-04-21T11:59:04;100537.05;;;23.23;19.87
56582;BME280;42463;52.214;21.238;2023-04-21T12:01:39;100534.57;;;23.33;20.19
56582;BME280;42463;52.214;21.238;2023-04-21T12:04:19;100531.25;;;23.37;19.69
56582;BME280;42463;52.214;21.238;2023-04-21T12:07:08;100532.98;;;23.39;20.40
56582;BME280;42463;52.214;21.238;2023-04-21T12:09:49;100522.14;;;23.53;19.89
56582;BME280;42463;52.214;21.238;2023-04-21T12:12:28;100518.25;;;23.55;19.55
56582;BME280;42463;52.214;21.238;2023-04-21T12:15:07;100515.84;;;23.56;19.86
56582;BME280;42463;52.214;21.238;2023-04-21T12:17:51;100510.76;;;23.60;19.61
56582;BME280;42463;52.214;21.238;2023-04-21T12:20:23;100514.52;;;23.59;19.70
56582;BME280;42463;52.214;21.238;2023-04-21T12:23:01;100511.58;;;23.54;19.61
56582;BME280;42463;52.214;21.238;2023-04-21T12:25:34;100511.69;;;23.47;19.98
56582;BME280;42463;52.214;21.238;2023-04-21T12:28:14;100504.79;;;23.42;19.91
56582;BME280;42463;52.214;21.238;2023-04-21T12:30:54;100504.22;;;23.44;20.13
56582;BME280;42463;52.214;21.238;2023-04-21T12:33:31;100498.23;;;23.44;19.97
56582;BME280;42463;52.214;21.238;2023-04-21T12:36:07;100489.55;;;23.45;19.72
56582;BME280;42463;52.214;21.238;2023-04-21T12:38:46;100495.88;;;23.41;19.67
56582;BME280;42463;52.214;21.238;2023-04-21T12:41:26;100488.08;;;23.39;20.05
56582;BME280;42463;52.214;21.238;2023-04-21T12:44:03;100484.48;;;23.41;19.61
56582;BME280;42463;52.214;21.238;2023-04-21T12:46:44;100487.70;;;23.44;20.17
56582;BME280;42463;52.214;21.238;2023-04-21T12:49:23;100484.98;;;23.54;19.60
56582;BME280;42463;52.214;21.238;2023-04-21T12:52:32;100485.33;;;23.51;19.63
56582;BME280;42463;52.214;21.238;2023-04-21T12:56:04;100475.70;;;23.49;19.64
56582;BME280;42463;52.214;21.238;2023-04-21T13:02:44;100475.64;;;23.53;20.23
56582;BME280;42463;52.214;21.238;2023-04-21T13:05:48;100467.92;;;23.48;19.65
56582;BME280;42463;52.214;21.238;2023-04-21T13:08:43;100470.14;;;23.38;19.82
56582;BME280;42463;52.214;21.238;2023-04-21T13:11:45;100465.20;;;23.35;19.43
56582;BME280;42463;52.214;21.238;2023-04-21T14:16:53;100402.73;;;22.55;20.57
56582;BME280;42463;52.214;21.238;2023-04-21T14:23:55;100389.10;;;22.46;20.55
56582;BME280;42463;52.214;21.238;2023-04-21T14:26:55;100394.55;;;22.42;20.79
56582;BME280;42463;52.214;21.238;2023-04-21T14:29:31;100390.70;;;22.39;21.00
56582;BME280;42463;52.214;21.238;2023-04-21T14:32:11;100392.98;;;22.37;21.26
56582;BME280;42463;52.214;21.238;2023-04-21T14:42:01;100375.16;;;22.14;21.24
56582;BME280;42463;52.214;21.238;2023-04-21T14:44:35;100372.41;;;22.03;21.68
56582;BME280;42463;52.214;21.238;2023-04-21T14:47:11;100366.91;;;22.00;21.68
56582;BME280;42463;52.214;21.238;2023-04-21T14:49:47;100364.41;;;21.99;21.57
56582;BME280;42463;52.214;21.238;2023-04-21T14:52:36;100368.52;;;21.97;21.67
56582;BME280;42463;52.214;21.238;2023-04-21T15:03:22;100359.02;;;21.86;21.20
56582;BME280;42463;52.214;21.238;2023-04-21T15:16:49;100352.75;;;21.54;21.86
56582;BME280;42463;52.214;21.238;2023-04-21T15:19:43;100349.83;;;21.47;22.34
56582;BME280;42463;52.214;21.238;2023-04-21T15:25:58;100342.16;;;21.37;22.24
56582;BME280;42463;52.214;21.238;2023-04-21T15:32:08;100338.90;;;21.26;22.55
56582;BME280;42463;52.214;21.238;2023-04-21T15:35:01;100334.84;;;21.23;22.51
56582;BME280;42463;52.214;21.238;2023-04-21T15:41:51;100332.68;;;21.16;22.93
56582;BME280;42463;52.214;21.238;2023-04-21T15:45:11;100331.55;;;21.12;23.12
56582;BME280;42463;52.214;21.238;2023-04-21T15:48:02;100333.27;;;21.07;22.78
56582;BME280;42463;52.214;21.238;2023-04-21T15:54:49;100327.74;;;20.92;22.65
56582;BME280;42463;52.214;21.238;2023-04-21T15:57:33;100328.70;;;20.85;22.82
56582;BME280;42463;52.214;21.238;2023-04-21T16:00:13;100326.74;;;20.82;22.79
56582;BME280;42463;52.214;21.238;2023-04-21T16:03:04;100327.52;;;20.82;22.65
56582;BME280;42463;52.214;21.238;2023-04-21T16:06:15;100327.36;;;20.79;22.93
56582;BME280;42463;52.214;21.238;2023-04-21T16:09:02;100322.27;;;20.73;22.94
56582;BME280;42463;52.214;21.238;2023-04-21T16:11:54;100320.00;;;20.64;23.33
56582;BME280;42463;52.214;21.238;2023-04-21T16:14:45;100317.60;;;20.58;23.80
56582;BME280;42463;52.214;21.238;2023-04-21T16:17:33;100314.77;;;20.55;23.58
56582;BME280;42463;52.214;21.238;2023-04-21T16:20:34;100317.92;;;20.52;23.75
56582;BME280;42463;52.214;21.238;2023-04-21T16:23:52;100316.91;;;20.47;24.01
56582;BME280;42463;52.214;21.238;2023-04-21T16:26:47;100320.17;;;20.41;23.95
56582;BME280;42463;52.214;21.238;2023-04-21T16:29:25;100321.35;;;20.36;23.81
56582;BME280;42463;52.214;21.238;2023-04-21T16:32:07;100319.40;;;20.33;24.07
56582;BME280;42463;52.214;21.238;2023-04-21T16:38:17;100314.19;;;20.20;24.17
56582;BME280;42463;52.214;21.238;2023-04-21T16:40:57;100314.55;;;20.13;24.48
56582;BME280;42463;52.214;21.238;2023-04-21T16:44:06;100315.10;;;20.07;24.80
56582;BME280;42463;52.214;21.238;2023-04-21T16:49:59;100313.52;;;20.01;24.76
56582;BME280;42463;52.214;21.238;2023-04-21T16:52:38;100308.95;;;19.97;25.03
56582;BME280;42463;52.214;21.238;2023-04-21T16:58:23;100309.36;;;19.87;24.81
56582;BME280;42463;52.214;21.238;2023-04-21T17:01:30;100309.33;;;19.84;24.92
56582;BME280;42463;52.214;21.238;2023-04-21T17:04:31;100308.68;;;19.78;25.04
56582;BME280;42463;52.214;21.238;2023-04-21T17:07:23;100306.61;;;19.74;25.27
56582;BME280;42463;52.214;21.238;2023-04-21T17:10:29;100311.31;;;19.68;25.50
56582;BME280;42463;52.214;21.238;2023-04-21T17:16:31;100312.09;;;19.53;25.91
56582;BME280;42463;52.214;21.238;2023-04-21T17:19:18;100311.56;;;19.47;26.30
56582;BME280;42463;52.214;21.238;2023-04-21T17:22:31;100315.36;;;19.41;26.40
56582;BME280;42463;52.214;21.238;2023-04-21T17:25:11;100313.37;;;19.33;26.82
56582;BME280;42463;52.214;21.238;2023-04-21T17:31:27;100311.52;;;19.10;27.17
56582;BME280;42463;52.214;21.238;2023-04-21T17:34:19;100313.52;;;18.99;27.32
56582;BME280;42463;52.214;21.238;2023-04-21T17:37:09;100314.34;;;18.92;27.56
56582;BME280;42463;52.214;21.238;2023-04-21T17:39:53;100313.50;;;18.88;27.79
56582;BME280;42463;52.214;21.238;2023-04-21T17:43:00;100317.06;;;18.85;28.04
56582;BME280;42463;52.214;21.238;2023-04-21T17:45:41;100321.29;;;18.78;28.29
56582;BME280;42463;52.214;21.238;2023-04-21T17:52:17;100326.20;;;18.61;28.53
56582;BME280;42463;52.214;21.238;2023-04-21T17:55:00;100324.91;;;18.52;28.73
56582;BME280;42463;52.214;21.238;2023-04-21T17:57:38;100327.21;;;18.45;28.75
56582;BME280;42463;52.214;21.238;2023-04-21T18:00:15;100325.71;;;18.41;28.99
56582;BME280;42463;52.214;21.238;2023-04-21T18:02:52;100328.65;;;18.34;29.25
56582;BME280;42463;52.214;21.238;2023-04-21T18:05:31;100329.91;;;18.25;29.34